createdAt,value
2023-06-08T00:03:23.187Z,17.00
2023-06-08T00:07:25.986Z,17.00
2023-06-08T00:11:28.427Z,17.10
2023-06-08T00:15:31.119Z,17.10
2023-06-08T00:19:37.075Z,17.00
2023-06-08T00:23:38.908Z,17.00
2023-06-08T00:27:40.933Z,17.00
2023-06-08T00:31:42.734Z,17.00
2023-06-08T00:35:44.398Z,16.90
2023-06-08T00:39:46.230Z,16.90
2023-06-08T00:43:48.762Z,16.90
2023-06-08T00:47:51.168Z,16.90
2023-06-08T00:51:53.126Z,16.90
2023-06-08T00:55:56.296Z,16.80
2023-06-08T01:00:02.514Z,16.80
2023-06-08T01:04:07.387Z,16.80
2023-06-08T01:08:13.916Z,16.70
2023-06-08T01:12:16.222Z,16.80
2023-06-08T01:16:19.666Z,16.70
2023-06-08T01:20:37.886Z,16.70
2023-06-08T01:24:41.156Z,16.60
2023-06-08T01:28:47.910Z,16.60
2023-06-08T01:32:49.707Z,16.60
2023-06-08T01:37:10.433Z,16.60
2023-06-08T01:41:24.350Z,16.50
2023-06-08T01:45:28.987Z,16.50
2023-06-08T01:49:33.400Z,16.50
2023-06-08T01:53:35.704Z,16.40
2023-06-08T01:57:37.517Z,16.50
2023-06-08T02:01:39.215Z,16.50
2023-06-08T02:05:41.230Z,16.50
2023-06-08T02:09:42.869Z,16.40
2023-06-08T02:13:45.713Z,16.40
2023-06-08T02:17:47.601Z,16.40
2023-06-08T02:21:50.530Z,16.30
2023-06-08T02:25:52.284Z,16.40
2023-06-08T02:29:54.709Z,16.30
2023-06-08T02:33:56.416Z,16.20
2023-06-08T02:37:58.184Z,16.20
2023-06-08T02:41:59.919Z,16.20
2023-06-08T02:46:01.880Z,16.10
2023-06-08T02:50:04.184Z,16.00
2023-06-08T02:54:06.272Z,15.90
2023-06-08T02:58:10.491Z,15.80
2023-06-08T03:02:12.578Z,15.60
2023-06-08T03:06:18.974Z,15.60
2023-06-08T03:10:20.664Z,15.50
2023-06-08T03:14:29.442Z,15.50
2023-06-08T03:18:31.100Z,15.40
2023-06-08T03:22:35.743Z,15.20
2023-06-08T03:26:38.062Z,15.20
2023-06-08T03:30:39.786Z,15.20
2023-06-08T03:34:41.824Z,15.20
2023-06-08T03:38:43.607Z,15.10
2023-06-08T03:42:45.347Z,15.00
2023-06-08T03:46:48.143Z,15.00
2023-06-08T03:50:53.031Z,14.90
2023-06-08T03:54:55.875Z,14.90
2023-06-08T03:58:57.998Z,14.90
2023-06-08T04:02:59.888Z,14.80
2023-06-08T04:07:02.275Z,14.80
2023-06-08T04:11:04.000Z,14.80
2023-06-08T04:15:06.525Z,14.70
2023-06-08T04:19:10.908Z,14.80
2023-06-08T04:23:12.690Z,14.70
2023-06-08T04:27:14.480Z,14.60
2023-06-08T04:31:16.933Z,14.70
2023-06-08T04:35:18.879Z,15.00
2023-06-08T04:39:20.896Z,15.10
2023-06-08T04:43:23.469Z,15.20
2023-06-08T04:47:25.150Z,15.30
2023-06-08T04:51:30.810Z,15.30
2023-06-08T04:55:32.596Z,15.50
2023-06-08T04:59:34.286Z,15.60
2023-06-08T05:03:36.203Z,15.50
2023-06-08T05:07:37.938Z,15.60
2023-06-08T05:11:41.001Z,15.70
2023-06-08T05:15:42.924Z,16.00
2023-06-08T05:19:44.600Z,16.20
2023-06-08T05:23:46.417Z,15.90
2023-06-08T05:27:48.342Z,15.90
2023-06-08T05:31:50.625Z,15.90
2023-06-08T05:35:52.288Z,15.70
2023-06-08T05:39:54.000Z,15.80
2023-06-08T05:43:55.700Z,15.70
2023-06-08T05:47:57.539Z,15.70
2023-06-08T05:51:59.331Z,15.60
2023-06-08T05:56:01.275Z,15.70
2023-06-08T06:04:18.654Z,16.20
2023-06-08T06:08:20.661Z,16.50
2023-06-08T06:12:22.514Z,16.60
2023-06-08T06:16:24.525Z,16.70
2023-06-08T06:20:28.397Z,17.00
2023-06-08T06:24:30.184Z,17.00
2023-06-08T06:28:31.925Z,17.30
2023-06-08T06:32:33.786Z,17.30
2023-06-08T06:36:35.830Z,17.30
2023-06-08T06:40:37.605Z,17.30
2023-06-08T06:44:39.295Z,17.30
2023-06-08T06:48:40.979Z,17.40
2023-06-08T06:52:42.705Z,17.40
2023-06-08T06:56:44.428Z,17.40
2023-06-08T07:00:46.431Z,17.30
2023-06-08T07:04:48.113Z,17.30
2023-06-08T07:08:50.426Z,17.00
2023-06-08T07:12:52.173Z,17.20
2023-06-08T07:16:53.885Z,17.20
2023-06-08T07:20:55.639Z,17.50
2023-06-08T07:25:01.086Z,17.80
2023-06-08T07:29:19.647Z,17.90
2023-06-08T07:33:21.461Z,18.20
2023-06-08T07:37:23.236Z,18.80
2023-06-08T07:41:28.132Z,19.30
2023-06-08T07:45:29.908Z,19.70
2023-06-08T07:49:31.779Z,20.00
2023-06-08T07:53:37.427Z,20.20
2023-06-08T07:57:39.154Z,20.20
2023-06-08T08:01:42.021Z,20.30
2023-06-08T08:05:43.703Z,20.80
2023-06-08T08:09:45.424Z,20.70
2023-06-08T08:13:47.561Z,21.00
2023-06-08T08:17:49.885Z,21.10
2023-06-08T08:21:51.629Z,21.40
2023-06-08T08:25:53.867Z,21.60
2023-06-08T08:29:55.738Z,21.80
2023-06-08T08:33:57.502Z,21.80
2023-06-08T08:37:59.260Z,22.00
2023-06-08T08:42:07.233Z,22.10
2023-06-08T08:46:09.993Z,22.90
2023-06-08T08:50:17.909Z,23.00
2023-06-08T08:54:32.254Z,23.30
2023-06-08T08:58:35.133Z,23.50
2023-06-08T09:02:37.794Z,23.90
2023-06-08T09:06:39.589Z,23.80
2023-06-08T09:10:41.237Z,24.30
2023-06-08T09:14:58.763Z,24.70
2023-06-08T09:19:07.651Z,24.80
2023-06-08T09:23:21.175Z,24.90
2023-06-08T09:27:28.558Z,25.40
2023-06-08T09:31:30.965Z,25.50
2023-06-08T09:35:32.702Z,25.50
2023-06-08T09:39:44.717Z,26.00
2023-06-08T09:43:48.526Z,25.70
2023-06-08T09:47:50.522Z,25.90
2023-06-08T09:51:57.761Z,26.60
2023-06-08T09:56:05.344Z,26.80
2023-06-08T10:00:14.851Z,26.90
2023-06-08T10:04:34.188Z,27.20
2023-06-08T10:08:38.957Z,27.60
2023-06-08T10:12:41.681Z,27.30
2023-06-08T10:16:44.045Z,26.40
2023-06-08T10:20:46.407Z,26.60
2023-06-08T10:25:07.477Z,26.00
2023-06-08T10:29:22.183Z,25.60
2023-06-08T10:33:26.401Z,26.00
2023-06-08T10:37:29.218Z,26.70
2023-06-08T10:41:54.597Z,26.70
2023-06-08T10:45:56.436Z,26.20
2023-06-08T10:50:07.490Z,26.40
2023-06-08T10:54:10.374Z,26.40
2023-06-08T10:58:22.572Z,26.20
2023-06-08T11:02:24.596Z,26.80
2023-06-08T11:06:30.280Z,27.10
2023-06-08T11:10:33.153Z,26.10
2023-06-08T11:14:34.942Z,25.90
2023-06-08T11:18:36.702Z,26.20
2023-06-08T11:22:41.674Z,26.80
2023-06-08T11:26:55.750Z,26.90
2023-06-08T11:31:10.978Z,27.00
2023-06-08T11:35:12.984Z,27.00
2023-06-08T11:39:15.332Z,27.60
2023-06-08T11:43:17.049Z,27.80
2023-06-08T11:47:19.931Z,28.30
2023-06-08T11:51:26.193Z,28.30
2023-06-08T11:55:29.412Z,28.00
2023-06-08T11:59:36.076Z,28.10
2023-06-08T12:03:49.035Z,27.60
2023-06-08T12:07:58.193Z,27.10
2023-06-08T12:12:10.165Z,27.80
2023-06-08T12:16:12.714Z,28.30
2023-06-08T12:20:18.218Z,29.00
2023-06-08T12:24:19.997Z,29.20
2023-06-08T12:28:25.048Z,29.00
2023-06-08T12:32:26.740Z,29.10
2023-06-08T12:36:28.706Z,29.00
2023-06-08T12:40:33.651Z,27.50
2023-06-08T12:44:35.961Z,26.50
2023-06-08T12:48:37.641Z,27.00
2023-06-08T12:52:39.457Z,27.20
2023-06-08T12:56:41.122Z,28.20
2023-06-08T13:00:42.963Z,28.30
2023-06-08T13:04:44.755Z,28.70
2023-06-08T13:08:46.731Z,28.40
2023-06-08T13:12:49.417Z,29.10
2023-06-08T13:16:51.344Z,28.20
2023-06-08T13:20:55.173Z,28.00
2023-06-08T13:24:56.939Z,28.90
2023-06-08T13:28:58.729Z,28.60
2023-06-08T13:33:01.966Z,28.80
2023-06-08T13:37:04.253Z,27.70
2023-06-08T13:41:06.578Z,27.60
2023-06-08T13:45:12.558Z,27.20
2023-06-08T13:49:15.405Z,26.50
2023-06-08T13:53:17.107Z,26.50
2023-06-08T13:57:18.918Z,26.90
2023-06-08T14:01:20.626Z,27.20
2023-06-08T14:05:22.407Z,27.70
2023-06-08T14:09:24.147Z,28.00
2023-06-08T14:13:26.277Z,27.50
2023-06-08T14:17:28.239Z,27.50
2023-06-08T14:21:29.935Z,27.60
2023-06-08T14:25:33.495Z,27.90
2023-06-08T14:29:35.322Z,28.00
2023-06-08T14:33:37.052Z,28.30
2023-06-08T14:37:38.752Z,27.50
2023-06-08T14:41:41.417Z,27.80
2023-06-08T14:45:43.352Z,28.40
2023-06-08T14:49:45.149Z,28.50
2023-06-08T14:53:46.790Z,28.10
2023-06-08T14:57:48.610Z,27.30
2023-06-08T15:01:50.418Z,27.30
2023-06-08T15:05:52.158Z,27.30
2023-06-08T15:09:53.867Z,27.90
2023-06-08T15:13:55.613Z,28.00
2023-06-08T15:17:57.359Z,28.10
2023-06-08T15:21:59.048Z,27.90
2023-06-08T15:26:00.862Z,27.20
2023-06-08T15:30:02.766Z,27.10
2023-06-08T15:34:04.795Z,26.50
2023-06-08T15:38:06.498Z,26.50
2023-06-08T15:42:08.444Z,26.60
2023-06-08T15:46:10.707Z,26.20
2023-06-08T15:50:12.419Z,25.80
2023-06-08T15:54:14.232Z,25.90
2023-06-08T15:58:17.080Z,25.90
2023-06-08T16:02:18.737Z,25.70
2023-06-08T16:06:20.664Z,25.70
2023-06-08T16:10:22.512Z,25.60
2023-06-08T16:14:24.178Z,25.40
2023-06-08T16:18:26.211Z,25.30
2023-06-08T16:22:28.254Z,25.40
2023-06-08T16:26:30.589Z,25.30
2023-06-08T16:30:32.432Z,25.30
2023-06-08T16:34:34.186Z,25.30
2023-06-08T16:38:39.294Z,25.40
2023-06-08T16:42:41.055Z,25.20
2023-06-08T16:46:42.957Z,25.20
2023-06-08T16:50:44.721Z,25.10
2023-06-08T16:54:46.444Z,25.00
2023-06-08T16:58:48.174Z,24.90
2023-06-08T17:02:49.954Z,24.90
2023-06-08T17:06:51.656Z,24.90
2023-06-08T17:10:53.352Z,24.90
2023-06-08T17:14:55.058Z,25.00
2023-06-08T17:18:56.749Z,24.80
2023-06-08T17:22:58.476Z,24.80
2023-06-08T17:27:00.534Z,24.80
2023-06-08T17:31:03.652Z,24.60
2023-06-08T17:35:06.243Z,24.70
2023-06-08T17:39:08.603Z,24.60
2023-06-08T17:43:10.349Z,24.60
2023-06-08T17:47:12.018Z,24.50
2023-06-08T17:51:17.384Z,24.40
2023-06-08T17:55:19.106Z,24.40
2023-06-08T17:59:20.923Z,24.20
2023-06-08T18:03:22.777Z,24.30
2023-06-08T18:07:24.527Z,24.20
2023-06-08T18:11:27.481Z,24.00
2023-06-08T18:15:29.235Z,24.20
2023-06-08T18:19:30.935Z,24.00
2023-06-08T18:23:32.719Z,23.90
2023-06-08T18:27:36.424Z,23.80
2023-06-08T18:31:38.271Z,23.70
2023-06-08T18:35:40.046Z,23.60
2023-06-08T18:39:57.093Z,23.50
2023-06-08T18:44:00.894Z,23.40
2023-06-08T18:48:02.624Z,23.40
2023-06-08T18:52:04.585Z,23.40
2023-06-08T18:56:06.254Z,23.40
2023-06-08T19:00:08.834Z,23.30
2023-06-08T19:04:11.039Z,23.10
2023-06-08T19:08:12.853Z,23.00
2023-06-08T19:12:16.447Z,22.80
2023-06-08T19:16:18.224Z,22.70
2023-06-08T19:20:19.989Z,22.60
2023-06-08T19:24:21.981Z,22.50
2023-06-08T19:28:23.644Z,22.30
2023-06-08T19:32:25.289Z,22.10
2023-06-08T19:36:27.009Z,22.00
2023-06-08T19:40:28.731Z,21.90
2023-06-08T19:44:31.259Z,21.70
2023-06-08T19:48:33.639Z,21.60
2023-06-08T19:52:35.414Z,21.30
2023-06-08T19:56:37.230Z,21.10
2023-06-08T20:00:38.905Z,20.90
2023-06-08T20:04:40.550Z,20.70
2023-06-08T20:08:43.010Z,20.60
2023-06-08T20:12:44.720Z,20.40
2023-06-08T20:16:49.956Z,20.30
2023-06-08T20:20:53.406Z,20.00
2023-06-08T20:24:55.080Z,19.80
2023-06-08T20:28:57.030Z,19.70
2023-06-08T20:32:59.834Z,19.60
2023-06-08T20:37:01.587Z,19.30
2023-06-08T20:41:03.362Z,19.10
2023-06-08T20:45:05.652Z,18.80
2023-06-08T20:49:07.636Z,18.70
2023-06-08T20:53:09.320Z,18.50
2023-06-08T20:57:12.101Z,18.40
2023-06-08T21:01:13.968Z,18.30
2023-06-08T21:05:17.423Z,18.10
2023-06-08T21:09:21.020Z,18.00
2023-06-08T21:13:22.791Z,17.90
2023-06-08T21:17:24.468Z,17.80
2023-06-08T21:21:26.217Z,17.60
2023-06-08T21:25:27.919Z,17.50
2023-06-08T21:29:29.612Z,17.50
2023-06-08T21:33:31.327Z,17.30
2023-06-08T21:37:33.020Z,17.10
2023-06-08T21:41:34.703Z,17.10
2023-06-08T21:45:36.377Z,17.00
2023-06-08T21:49:38.072Z,16.90
2023-06-08T21:53:39.738Z,16.90
2023-06-08T21:57:41.465Z,16.80
2023-06-08T22:01:43.348Z,16.70
2023-06-08T22:05:45.172Z,16.70
2023-06-08T22:09:46.930Z,16.70
2023-06-08T22:13:53.159Z,16.70
2023-06-08T22:17:55.666Z,16.70
2023-06-08T22:21:57.736Z,16.70
2023-06-08T22:25:59.398Z,16.70
2023-06-08T22:30:01.149Z,16.60
2023-06-08T22:34:03.054Z,16.70
2023-06-08T22:38:04.809Z,16.60
2023-06-08T22:42:06.814Z,16.60
2023-06-08T22:46:08.716Z,16.70
2023-06-08T22:50:11.046Z,16.70
2023-06-08T22:54:15.670Z,16.70
2023-06-08T22:58:18.296Z,16.70
2023-06-08T23:02:19.987Z,16.80
2023-06-08T23:06:23.742Z,16.70
2023-06-08T23:10:25.489Z,16.70
2023-06-08T23:14:27.162Z,16.60
2023-06-08T23:18:32.356Z,16.60
2023-06-08T23:22:34.377Z,16.50
2023-06-08T23:26:37.909Z,16.40
2023-06-08T23:30:39.564Z,16.30
2023-06-08T23:34:41.438Z,16.20
2023-06-08T23:38:43.170Z,16.10
2023-06-08T23:42:45.537Z,16.00
2023-06-08T23:46:52.452Z,16.00
2023-06-08T23:50:54.263Z,15.90
2023-06-08T23:54:56.374Z,15.80
2023-06-08T23:58:58.078Z,15.60
